createdAt,value
2023-05-08T00:00:44.743Z,0.52
2023-05-08T00:01:34.818Z,0.51
2023-05-08T00:02:24.970Z,0.52
2023-05-08T00:03:15.111Z,0.52
2023-05-08T00:04:05.204Z,0.51
2023-05-08T00:04:55.181Z,0.52
2023-05-08T00:05:45.132Z,0.51
2023-05-08T00:06:35.262Z,0.52
2023-05-08T00:07:25.234Z,0.52
2023-05-08T00:08:15.404Z,0.51
2023-05-08T00:09:05.347Z,0.52
2023-05-08T00:09:55.488Z,0.51
2023-05-08T00:10:45.461Z,0.51
2023-05-08T00:11:35.605Z,0.50
2023-05-08T00:12:25.578Z,0.52
2023-05-08T00:13:15.860Z,0.52
2023-05-08T00:14:05.686Z,0.51
2023-05-08T00:14:55.837Z,0.51
2023-05-08T00:15:45.801Z,0.51
2023-05-08T00:16:35.998Z,0.51
2023-05-08T00:17:25.997Z,0.52
2023-05-08T00:18:16.096Z,0.52
2023-05-08T00:19:06.065Z,0.52
2023-05-08T00:19:56.173Z,0.52
2023-05-08T00:20:46.181Z,0.51
2023-05-08T00:21:36.294Z,0.53
2023-05-08T00:22:26.322Z,0.51
2023-05-08T00:23:16.458Z,0.52
2023-05-08T00:24:06.416Z,0.52
2023-05-08T00:24:56.522Z,0.52
2023-05-08T00:25:46.532Z,0.51
2023-05-08T00:26:36.644Z,0.53
2023-05-08T00:27:26.672Z,0.52
2023-05-08T00:28:16.781Z,0.52
2023-05-08T00:29:07.050Z,0.52
2023-05-08T00:29:56.959Z,0.52
2023-05-08T00:30:46.890Z,0.52
2023-05-08T00:31:36.999Z,0.51
2023-05-08T00:32:27.209Z,0.52
2023-05-08T00:33:17.124Z,0.53
2023-05-08T00:34:07.099Z,0.53
2023-05-08T00:34:57.207Z,0.52
2023-05-08T00:35:47.253Z,0.53
2023-05-08T00:36:37.324Z,0.52
2023-05-08T00:37:27.342Z,0.53
2023-05-08T00:38:17.469Z,0.53
2023-05-08T00:39:07.484Z,0.52
2023-05-08T00:39:57.649Z,0.50
2023-05-08T00:40:47.620Z,0.52
2023-05-08T00:41:37.763Z,0.52
2023-05-08T00:42:27.761Z,0.51
2023-05-08T00:43:17.813Z,0.51
2023-05-08T00:44:07.868Z,0.51
2023-05-08T00:44:58.035Z,0.52
2023-05-08T00:45:48.010Z,0.52
2023-05-08T00:46:38.138Z,0.51
2023-05-08T00:47:28.095Z,0.51
2023-05-08T00:48:18.156Z,0.51
2023-05-08T00:49:08.164Z,0.51
2023-05-08T00:49:58.335Z,0.51
2023-05-08T00:50:48.307Z,0.51
2023-05-08T00:51:38.447Z,0.52
2023-05-08T00:52:28.424Z,0.50
2023-05-08T00:53:18.499Z,0.51
2023-05-08T00:54:08.561Z,0.53
2023-05-08T00:54:59.248Z,0.52
2023-05-08T00:55:48.656Z,0.52
2023-05-08T00:56:38.799Z,0.52
2023-05-08T00:57:28.783Z,0.51
2023-05-08T00:58:18.862Z,0.51
2023-05-08T00:59:08.876Z,0.51
2023-05-08T00:59:59.018Z,0.53
2023-05-08T01:00:49.017Z,0.52
2023-05-08T01:01:39.231Z,0.53
2023-05-08T01:02:29.202Z,0.52
2023-05-08T01:03:19.231Z,0.53
2023-05-08T01:04:09.233Z,0.52
2023-05-08T01:04:59.355Z,0.52
2023-05-08T01:05:49.339Z,0.53
2023-05-08T01:06:39.490Z,0.53
2023-05-08T01:07:29.450Z,0.53
2023-05-08T01:08:19.527Z,0.54
2023-05-08T01:09:09.608Z,0.53
2023-05-08T01:09:59.723Z,0.53
2023-05-08T01:10:49.679Z,0.54
2023-05-08T01:11:39.835Z,0.53
2023-05-08T01:12:29.800Z,0.55
2023-05-08T01:13:20.112Z,0.52
2023-05-08T01:14:09.903Z,0.52
2023-05-08T01:15:00.054Z,0.53
2023-05-08T01:15:50.067Z,0.52
2023-05-08T01:16:40.237Z,0.53
2023-05-08T01:17:30.119Z,0.53
2023-05-08T01:18:20.218Z,0.53
2023-05-08T01:19:10.276Z,0.52
2023-05-08T01:20:00.396Z,0.52
2023-05-08T01:20:50.326Z,0.53
2023-05-08T01:21:40.410Z,0.53
2023-05-08T01:22:30.448Z,0.52
2023-05-08T01:23:20.563Z,0.52
2023-05-08T01:24:10.544Z,0.53
2023-05-08T01:25:00.635Z,0.51
2023-05-08T01:25:50.658Z,0.52
2023-05-08T01:26:40.753Z,0.53
2023-05-08T01:27:30.769Z,0.52
2023-05-08T01:28:20.902Z,0.52
2023-05-08T01:29:10.881Z,0.51
2023-05-08T01:30:00.979Z,0.52
2023-05-08T01:30:50.994Z,0.52
2023-05-08T01:31:41.096Z,0.52
2023-05-08T01:32:31.198Z,0.52
2023-05-08T01:33:21.471Z,0.52
2023-05-08T01:34:11.240Z,0.53
2023-05-08T01:35:01.421Z,0.52
2023-05-08T01:35:51.358Z,0.53
2023-05-08T01:36:41.442Z,0.53
2023-05-08T01:37:31.454Z,0.52
2023-05-08T01:38:21.592Z,0.54
2023-05-08T01:39:11.563Z,0.51
2023-05-08T01:40:01.673Z,0.52
2023-05-08T01:40:51.693Z,0.52
2023-05-08T01:41:42.544Z,0.52
2023-05-08T01:42:31.805Z,0.52
2023-05-08T01:43:21.932Z,0.54
2023-05-08T01:44:11.909Z,0.52
2023-05-08T01:45:02.014Z,0.53
2023-05-08T01:45:52.028Z,0.52
2023-05-08T01:46:42.176Z,0.51
2023-05-08T01:47:32.200Z,0.53
2023-05-08T01:48:22.379Z,0.53
2023-05-08T01:49:12.284Z,0.53
2023-05-08T01:50:02.361Z,0.53
2023-05-08T01:50:52.368Z,0.52
2023-05-08T01:51:42.469Z,0.52
2023-05-08T01:52:32.487Z,0.52
2023-05-08T01:53:22.615Z,0.52
2023-05-08T01:54:12.586Z,0.53
2023-05-08T01:55:02.717Z,0.53
2023-05-08T01:55:52.693Z,0.52
2023-05-08T01:56:42.814Z,0.53
2023-05-08T01:57:32.789Z,0.54
2023-05-08T01:58:22.964Z,0.53
2023-05-08T01:59:13.550Z,0.52
2023-05-08T02:00:03.038Z,0.52
2023-05-08T02:00:53.049Z,0.51
2023-05-08T02:01:43.155Z,0.53
2023-05-08T02:02:33.242Z,0.53
2023-05-08T02:03:23.312Z,0.52
2023-05-08T02:04:13.270Z,0.52
2023-05-08T02:05:03.384Z,0.52
2023-05-08T02:05:53.310Z,0.52
2023-05-08T02:06:43.410Z,0.51
2023-05-08T02:07:33.414Z,0.53
2023-05-08T02:08:23.543Z,0.52
2023-05-08T02:09:13.519Z,0.52
2023-05-08T02:10:03.630Z,0.53
2023-05-08T02:10:53.640Z,0.53
2023-05-08T02:11:43.739Z,0.54
2023-05-08T02:12:33.755Z,0.54
2023-05-08T02:13:23.944Z,0.53
2023-05-08T02:14:13.865Z,0.54
2023-05-08T02:15:03.969Z,0.52
2023-05-08T02:15:54.000Z,0.53
2023-05-08T02:16:44.097Z,0.52
2023-05-08T02:17:34.120Z,0.54
2023-05-08T02:18:24.233Z,0.52
2023-05-08T02:19:14.209Z,0.52
2023-05-08T02:20:04.331Z,0.53
2023-05-08T02:20:54.353Z,0.53
2023-05-08T02:21:44.434Z,0.53
2023-05-08T02:22:34.443Z,0.54
2023-05-08T02:23:24.597Z,0.54
2023-05-08T02:24:14.564Z,0.52
2023-05-08T02:25:05.772Z,0.53
2023-05-08T02:25:54.718Z,0.52
2023-05-08T02:26:44.870Z,0.51
2023-05-08T02:27:34.843Z,0.53
2023-05-08T02:28:25.024Z,0.53
2023-05-08T02:29:14.973Z,0.53
2023-05-08T02:30:05.061Z,0.52
2023-05-08T02:30:55.085Z,0.53
2023-05-08T02:31:45.285Z,0.52
2023-05-08T02:32:35.248Z,0.51
2023-05-08T02:33:25.360Z,0.54
2023-05-08T02:34:15.334Z,0.52
2023-05-08T02:35:05.507Z,0.51
2023-05-08T02:35:55.464Z,0.51
2023-05-08T02:36:45.556Z,0.52
2023-05-08T02:37:35.575Z,0.51
2023-05-08T02:38:25.708Z,0.51
2023-05-08T02:39:15.684Z,0.50
2023-05-08T02:40:05.852Z,0.53
2023-05-08T02:40:55.847Z,0.52
2023-05-08T02:41:46.008Z,0.52
2023-05-08T02:42:35.947Z,0.53
2023-05-08T02:43:26.054Z,0.51
2023-05-08T02:44:16.071Z,0.50
2023-05-08T02:45:06.195Z,0.51
2023-05-08T02:45:56.268Z,0.51
2023-05-08T02:46:46.342Z,0.52
2023-05-08T02:47:36.337Z,0.52
2023-05-08T02:48:26.494Z,0.51
2023-05-08T02:49:16.427Z,0.51
2023-05-08T02:50:06.536Z,0.52
2023-05-08T02:50:56.566Z,0.53
2023-05-08T02:51:46.792Z,0.51
2023-05-08T02:52:36.682Z,0.52
2023-05-08T02:53:26.837Z,0.53
2023-05-08T02:54:16.809Z,0.52
2023-05-08T02:55:06.982Z,0.52
2023-05-08T02:55:56.919Z,0.52
2023-05-08T02:56:47.029Z,0.52
2023-05-08T02:57:37.045Z,0.53
2023-05-08T02:58:27.179Z,0.53
2023-05-08T02:59:17.160Z,0.52
2023-05-08T03:00:07.322Z,0.52
2023-05-08T03:00:57.262Z,0.53
2023-05-08T03:01:47.464Z,0.52
2023-05-08T03:02:37.491Z,0.52
2023-05-08T03:03:27.751Z,0.53
2023-05-08T03:04:17.507Z,0.52
2023-05-08T03:05:07.678Z,0.52
2023-05-08T03:05:57.661Z,0.53
2023-05-08T03:06:47.722Z,0.52
2023-05-08T03:07:37.749Z,0.50
2023-05-08T03:08:27.862Z,0.53
2023-05-08T03:09:17.835Z,0.51
2023-05-08T03:10:08.012Z,0.51
2023-05-08T03:10:57.959Z,0.51
2023-05-08T03:11:48.055Z,0.51
2023-05-08T03:12:39.433Z,0.51
2023-05-08T03:13:29.190Z,0.51
2023-05-08T03:14:18.172Z,0.51
2023-05-08T03:15:08.245Z,0.53
2023-05-08T03:15:58.355Z,0.52
2023-05-08T03:16:48.398Z,0.52
2023-05-08T03:17:38.495Z,0.52
2023-05-08T03:18:28.551Z,0.53
2023-05-08T03:19:18.523Z,0.52
2023-05-08T03:20:08.710Z,0.52
2023-05-08T03:20:59.186Z,0.51
2023-05-08T03:21:48.747Z,0.52
2023-05-08T03:22:38.834Z,0.52
2023-05-08T03:23:28.836Z,0.52
2023-05-08T03:24:18.969Z,0.52
2023-05-08T03:25:08.936Z,0.51
2023-05-08T03:25:59.042Z,0.51
2023-05-08T03:26:49.072Z,0.51
2023-05-08T03:27:39.156Z,0.53
2023-05-08T03:28:29.180Z,0.52
2023-05-08T03:29:19.305Z,0.52
2023-05-08T03:30:09.371Z,0.52
2023-05-08T03:30:59.634Z,0.52
2023-05-08T03:31:49.446Z,0.53
2023-05-08T03:32:40.117Z,0.54
2023-05-08T03:33:29.552Z,0.53
2023-05-08T03:34:19.648Z,0.53
2023-05-08T03:35:09.688Z,0.51
2023-05-08T03:35:59.835Z,0.53
2023-05-08T03:36:49.762Z,0.52
2023-05-08T03:37:39.843Z,0.53
2023-05-08T03:38:29.865Z,0.53
2023-05-08T03:39:20.018Z,0.52
2023-05-08T03:40:11.233Z,0.52
2023-05-08T03:41:00.376Z,0.52
2023-05-08T03:41:50.368Z,0.52
2023-05-08T03:42:40.497Z,0.52
2023-05-08T03:43:30.464Z,0.52
2023-05-08T03:44:20.665Z,0.53
2023-05-08T03:45:10.579Z,0.53
2023-05-08T03:46:00.730Z,0.54
2023-05-08T03:46:50.762Z,0.51
2023-05-08T03:47:47.326Z,0.54
2023-05-08T03:48:30.805Z,0.53
2023-05-08T03:49:21.415Z,0.53
2023-05-08T03:50:11.135Z,0.54
2023-05-08T03:51:00.960Z,0.54
2023-05-08T03:51:51.099Z,0.53
2023-05-08T03:52:41.086Z,0.52
2023-05-08T03:53:31.255Z,0.54
2023-05-08T03:54:21.184Z,0.54
2023-05-08T03:55:11.325Z,0.55
2023-05-08T03:56:01.298Z,0.54
2023-05-08T03:56:51.346Z,0.54
2023-05-08T03:57:41.372Z,0.56
2023-05-08T03:58:31.500Z,0.56
2023-05-08T03:59:21.482Z,0.57
2023-05-08T04:00:11.915Z,0.57
2023-05-08T04:01:01.600Z,0.56
2023-05-08T04:01:51.740Z,0.56
2023-05-08T04:02:42.559Z,0.57
2023-05-08T04:03:31.864Z,0.55
2023-05-08T04:04:21.789Z,0.56
2023-05-08T04:05:11.896Z,0.54
2023-05-08T04:06:01.921Z,0.57
2023-05-08T04:06:52.036Z,0.56
2023-05-08T04:07:42.018Z,0.56
2023-05-08T04:08:32.199Z,0.55
2023-05-08T04:09:22.124Z,0.56
2023-05-08T04:10:12.581Z,0.54
2023-05-08T04:11:02.335Z,0.56
2023-05-08T04:11:52.384Z,0.53
2023-05-08T04:12:42.394Z,0.55
2023-05-08T04:13:32.581Z,0.53
2023-05-08T04:14:22.491Z,0.55
2023-05-08T04:15:13.789Z,0.54
2023-05-08T04:16:02.622Z,0.54
2023-05-08T04:16:52.801Z,0.55
2023-05-08T04:17:42.802Z,0.55
2023-05-08T04:18:32.875Z,0.56
2023-05-08T04:19:22.849Z,0.56
2023-05-08T04:20:12.920Z,0.56
2023-05-08T04:21:03.034Z,0.54
2023-05-08T04:21:53.078Z,0.56
2023-05-08T04:22:43.087Z,0.55
2023-05-08T04:23:33.229Z,0.56
2023-05-08T04:24:23.735Z,0.55
2023-05-08T04:25:13.557Z,0.54
2023-05-08T04:26:05.381Z,0.56
2023-05-08T04:26:53.446Z,0.55
2023-05-08T04:27:43.432Z,0.56
2023-05-08T04:28:33.564Z,0.55
2023-05-08T04:29:23.536Z,0.55
2023-05-08T04:30:13.622Z,0.56
2023-05-08T04:31:03.678Z,0.56
2023-05-08T04:31:53.819Z,0.57
2023-05-08T04:32:45.629Z,0.56
2023-05-08T04:33:33.917Z,0.59
2023-05-08T04:34:23.926Z,0.55
2023-05-08T04:35:14.586Z,0.56
2023-05-08T04:36:04.052Z,0.58
2023-05-08T04:36:54.118Z,0.58
2023-05-08T04:37:44.126Z,0.56
2023-05-08T04:38:34.252Z,0.55
2023-05-08T04:39:24.232Z,0.57
2023-05-08T04:40:14.409Z,0.57
2023-05-08T04:41:04.431Z,0.58
2023-05-08T04:41:54.443Z,0.57
2023-05-08T04:42:44.487Z,0.59
2023-05-08T04:43:34.596Z,0.57
2023-05-08T04:44:24.575Z,0.57
2023-05-08T04:45:14.920Z,0.57
2023-05-08T04:46:04.773Z,0.57
2023-05-08T04:46:54.793Z,0.58
2023-05-08T04:47:44.860Z,0.57
2023-05-08T04:48:34.951Z,0.58
2023-05-08T04:49:24.927Z,0.58
2023-05-08T04:50:15.113Z,0.59
2023-05-08T04:51:05.042Z,0.58
2023-05-08T04:51:55.143Z,0.58
2023-05-08T04:52:45.112Z,0.58
2023-05-08T04:53:35.282Z,0.59
2023-05-08T04:54:25.235Z,0.57
2023-05-08T04:55:15.433Z,0.59
2023-05-08T04:56:05.315Z,0.58
2023-05-08T04:56:55.386Z,0.60
2023-05-08T04:57:45.404Z,0.60
2023-05-08T04:58:35.562Z,0.60
2023-05-08T04:59:25.503Z,0.59
2023-05-08T05:00:15.674Z,0.60
2023-05-08T05:01:05.612Z,0.59
2023-05-08T05:01:55.760Z,0.61
2023-05-08T05:02:45.826Z,0.60
2023-05-08T05:03:35.890Z,0.60
2023-05-08T05:04:25.856Z,0.60
2023-05-08T05:05:16.009Z,0.60
2023-05-08T05:06:05.955Z,0.58
2023-05-08T05:06:56.056Z,0.56
2023-05-08T05:07:46.079Z,0.60
2023-05-08T05:08:36.208Z,0.59
2023-05-08T05:09:26.149Z,0.57
2023-05-08T05:10:16.268Z,0.59
2023-05-08T05:11:06.280Z,0.57
2023-05-08T05:11:58.072Z,0.59
2023-05-08T05:12:46.453Z,0.57
2023-05-08T05:13:36.547Z,0.59
2023-05-08T05:14:26.535Z,0.57
2023-05-08T05:15:16.705Z,0.58
2023-05-08T05:16:06.649Z,0.56
2023-05-08T05:16:56.704Z,0.59
2023-05-08T05:17:46.883Z,0.59
2023-05-08T05:18:36.890Z,0.58
2023-05-08T05:19:26.873Z,0.58
2023-05-08T05:20:17.044Z,0.58
2023-05-08T05:21:06.976Z,0.58
2023-05-08T05:21:57.082Z,0.56
2023-05-08T05:22:47.112Z,0.58
2023-05-08T05:23:37.234Z,0.56
2023-05-08T05:24:27.179Z,0.57
2023-05-08T05:25:17.288Z,0.54
2023-05-08T05:26:07.310Z,0.56
2023-05-08T05:26:57.430Z,0.55
2023-05-08T05:27:47.424Z,0.56
2023-05-08T05:28:38.624Z,0.57
2023-05-08T05:29:27.536Z,0.55
2023-05-08T05:30:18.174Z,0.56
2023-05-08T05:31:07.740Z,0.56
2023-05-08T05:31:57.736Z,0.55
2023-05-08T05:32:47.798Z,0.54
2023-05-08T05:33:37.788Z,0.55
2023-05-08T05:34:27.827Z,0.57
2023-05-08T05:35:17.907Z,0.57
2023-05-08T05:36:07.926Z,0.56
2023-05-08T05:36:57.988Z,0.58
2023-05-08T05:37:48.081Z,0.55
2023-05-08T05:38:38.106Z,0.55
2023-05-08T05:39:29.666Z,0.55
2023-05-08T05:40:18.223Z,0.55
2023-05-08T05:41:08.281Z,0.55
2023-05-08T05:41:58.367Z,0.55
2023-05-08T05:42:48.395Z,0.55
2023-05-08T05:43:38.427Z,0.56
2023-05-08T05:44:28.486Z,0.55
2023-05-08T05:45:19.142Z,0.55
2023-05-08T05:46:08.710Z,0.57
2023-05-08T05:46:58.788Z,0.55
2023-05-08T05:47:48.802Z,0.57
2023-05-08T05:48:38.818Z,0.56
2023-05-08T05:49:28.898Z,0.56
2023-05-08T05:50:18.955Z,0.55
2023-05-08T05:51:09.030Z,0.54
2023-05-08T05:51:59.104Z,0.56
2023-05-08T05:52:49.148Z,0.55
2023-05-08T05:53:39.170Z,0.56
2023-05-08T05:54:29.238Z,0.53
2023-05-08T05:55:19.326Z,0.54
2023-05-08T05:56:09.380Z,0.54
2023-05-08T05:56:59.463Z,0.54
2023-05-08T05:57:49.516Z,0.55
2023-05-08T05:58:39.553Z,0.54
2023-05-08T05:59:29.620Z,0.54
2023-05-08T06:00:19.691Z,0.54
2023-05-08T06:01:09.766Z,0.54
2023-05-08T06:01:59.888Z,0.54
2023-05-08T06:02:50.022Z,0.54
2023-05-08T06:03:40.030Z,0.54
2023-05-08T06:04:30.076Z,0.54
2023-05-08T06:05:20.027Z,0.53
2023-05-08T06:06:10.113Z,0.52
2023-05-08T06:07:00.187Z,0.54
2023-05-08T06:07:50.232Z,0.53
2023-05-08T06:08:40.304Z,0.54
2023-05-08T06:09:30.365Z,0.54
2023-05-08T06:10:20.448Z,0.55
2023-05-08T06:11:10.499Z,0.55
2023-05-08T06:12:00.588Z,0.54
2023-05-08T06:12:50.686Z,0.55
2023-05-08T06:13:40.698Z,0.54
2023-05-08T06:14:30.764Z,0.53
2023-05-08T06:15:20.826Z,0.53
2023-05-08T06:16:10.909Z,0.53
2023-05-08T06:17:01.009Z,0.53
2023-05-08T06:17:51.126Z,0.52
2023-05-08T06:18:41.084Z,0.54
2023-05-08T06:19:31.158Z,0.53
2023-05-08T06:20:21.224Z,0.54
2023-05-08T06:21:11.293Z,0.54
2023-05-08T06:22:01.360Z,0.53
2023-05-08T06:22:51.441Z,0.53
2023-05-08T06:23:41.505Z,0.52
2023-05-08T06:24:31.574Z,0.52
2023-05-08T06:25:21.647Z,0.52
2023-05-08T06:26:11.703Z,0.53
2023-05-08T06:27:01.786Z,0.55
2023-05-08T06:27:51.873Z,0.55
2023-05-08T06:28:41.936Z,0.55
2023-05-08T06:29:32.014Z,0.55
2023-05-08T06:30:22.072Z,0.54
2023-05-08T06:31:12.245Z,0.54
2023-05-08T06:32:02.221Z,0.54
2023-05-08T06:32:52.335Z,0.54
2023-05-08T06:33:42.414Z,0.54
2023-05-08T06:34:32.370Z,0.55
2023-05-08T06:35:22.432Z,0.53
2023-05-08T06:36:12.494Z,0.52
2023-05-08T06:37:02.555Z,0.53
2023-05-08T06:37:52.641Z,0.53
2023-05-08T06:38:42.671Z,0.52
2023-05-08T06:39:32.740Z,0.52
2023-05-08T06:40:22.796Z,0.52
2023-05-08T06:41:15.205Z,0.52
2023-05-08T06:42:02.930Z,0.52
2023-05-08T06:42:53.000Z,0.52
2023-05-08T06:43:43.653Z,0.52
2023-05-08T06:44:33.070Z,0.52
2023-05-08T06:45:23.140Z,0.53
2023-05-08T06:46:13.258Z,0.54
2023-05-08T06:47:04.293Z,0.53
2023-05-08T06:47:53.410Z,0.54
2023-05-08T06:48:43.383Z,0.54
2023-05-08T06:49:33.478Z,0.54
2023-05-08T06:50:23.509Z,0.53
2023-05-08T06:51:13.571Z,0.55
2023-05-08T06:52:03.645Z,0.55
2023-05-08T06:52:53.722Z,0.54
2023-05-08T06:53:43.753Z,0.55
2023-05-08T06:54:33.827Z,0.55
2023-05-08T06:55:23.895Z,0.54
2023-05-08T06:56:13.969Z,0.53
2023-05-08T06:57:04.033Z,0.55
2023-05-08T06:57:54.112Z,0.53
2023-05-08T06:58:48.318Z,0.54
2023-05-08T06:59:35.209Z,0.54
2023-05-08T07:00:24.274Z,0.55
2023-05-08T07:01:14.365Z,0.54
2023-05-08T07:02:04.551Z,0.55
2023-05-08T07:02:54.517Z,0.55
2023-05-08T07:03:44.492Z,0.56
2023-05-08T07:04:34.596Z,0.57
2023-05-08T07:05:24.674Z,0.54
2023-05-08T07:06:14.699Z,0.54
2023-05-08T07:07:04.763Z,0.54
2023-05-08T07:07:54.848Z,0.54
2023-05-08T07:08:44.872Z,0.54
2023-05-08T07:09:34.944Z,0.54
2023-05-08T07:10:26.663Z,0.56
2023-05-08T07:11:15.081Z,0.56
2023-05-08T07:12:06.194Z,0.57
2023-05-08T07:12:55.259Z,0.56
2023-05-08T07:13:45.287Z,0.55
2023-05-08T07:14:35.347Z,0.55
2023-05-08T07:15:26.925Z,0.53
2023-05-08T07:16:15.565Z,0.55
2023-05-08T07:17:05.511Z,0.53
2023-05-08T07:17:55.629Z,0.52
2023-05-08T07:18:45.627Z,0.53
2023-05-08T07:19:35.700Z,0.53
2023-05-08T07:20:25.821Z,0.52
2023-05-08T07:21:15.931Z,0.53
2023-05-08T07:22:06.033Z,0.52
2023-05-08T07:22:55.938Z,0.53
2023-05-08T07:23:45.973Z,0.54
2023-05-08T07:24:36.038Z,0.54
2023-05-08T07:25:26.112Z,0.53
2023-05-08T07:26:16.193Z,0.53
2023-05-08T07:27:06.257Z,0.55
2023-05-08T07:27:56.348Z,0.56
2023-05-08T07:28:46.373Z,0.56
2023-05-08T07:29:36.438Z,0.56
2023-05-08T07:30:26.524Z,0.56
2023-05-08T07:31:16.636Z,0.54
2023-05-08T07:32:06.633Z,0.53
2023-05-08T07:32:56.706Z,0.53
2023-05-08T07:33:46.753Z,0.53
2023-05-08T07:34:36.766Z,0.54
2023-05-08T07:35:26.834Z,0.53
2023-05-08T07:36:16.898Z,0.54
2023-05-08T07:37:07.031Z,0.52
2023-05-08T07:37:57.020Z,0.53
2023-05-08T07:38:47.084Z,0.53
2023-05-08T07:39:37.148Z,0.52
2023-05-08T07:40:27.205Z,0.53
2023-05-08T07:41:17.324Z,0.54
2023-05-08T07:42:07.304Z,0.52
2023-05-08T07:42:57.380Z,0.52
2023-05-08T07:43:47.448Z,0.51
2023-05-08T07:44:50.979Z,0.52
2023-05-08T07:45:28.587Z,0.52
2023-05-08T07:46:17.690Z,0.52
2023-05-08T07:47:07.707Z,0.51
2023-05-08T07:47:57.814Z,0.53
2023-05-08T07:48:47.757Z,0.53
2023-05-08T07:49:37.810Z,0.53
2023-05-08T07:50:27.877Z,0.53
2023-05-08T07:51:17.950Z,0.55
2023-05-08T07:52:08.021Z,0.53
2023-05-08T07:52:58.127Z,0.55
2023-05-08T07:53:48.122Z,0.54
2023-05-08T07:54:38.199Z,0.54
2023-05-08T07:55:28.216Z,0.54
2023-05-08T07:56:18.292Z,0.54
2023-05-08T07:57:08.343Z,0.54
2023-05-08T07:57:58.416Z,0.55
2023-05-08T07:58:48.441Z,0.54
2023-05-08T07:59:38.513Z,0.55
2023-05-08T08:00:28.577Z,0.53
2023-05-08T08:01:18.658Z,0.51
2023-05-08T08:02:08.725Z,0.52
2023-05-08T08:02:58.914Z,0.53
2023-05-08T08:03:48.929Z,0.52
2023-05-08T08:04:38.929Z,0.52
2023-05-08T08:05:28.914Z,0.51
2023-05-08T08:06:18.989Z,0.51
2023-05-08T08:07:09.057Z,0.52
2023-05-08T08:07:59.146Z,0.52
2023-05-08T08:08:49.292Z,0.51
2023-05-08T08:09:39.257Z,0.50
2023-05-08T08:10:29.291Z,0.51
2023-05-08T08:11:19.365Z,0.50
2023-05-08T08:12:09.426Z,0.51
2023-05-08T08:12:59.543Z,0.52
2023-05-08T08:13:49.535Z,0.50
2023-05-08T08:14:39.609Z,0.51
2023-05-08T08:15:30.189Z,0.52
2023-05-08T08:16:19.742Z,0.52
2023-05-08T08:17:09.797Z,0.53
2023-05-08T08:17:59.876Z,0.54
2023-05-08T08:18:49.903Z,0.52
2023-05-08T08:19:39.902Z,0.51
2023-05-08T08:20:29.970Z,0.52
2023-05-08T08:21:20.030Z,0.51
2023-05-08T08:22:10.133Z,0.52
2023-05-08T08:23:00.180Z,0.52
2023-05-08T08:23:50.200Z,0.52
2023-05-08T08:24:40.476Z,0.50
2023-05-08T08:25:30.320Z,0.50
2023-05-08T08:26:20.383Z,0.52
2023-05-08T08:27:10.446Z,0.53
2023-05-08T08:28:00.542Z,0.52
2023-05-08T08:28:50.554Z,0.51
2023-05-08T08:29:40.624Z,0.51
2023-05-08T08:30:30.652Z,0.51
2023-05-08T08:31:20.787Z,0.50
2023-05-08T08:32:10.763Z,0.52
2023-05-08T08:33:00.889Z,0.54
2023-05-08T08:33:50.901Z,0.53
2023-05-08T08:34:40.967Z,0.53
2023-05-08T08:35:31.043Z,0.54
2023-05-08T08:36:21.097Z,0.53
2023-05-08T08:37:13.740Z,0.54
2023-05-08T08:38:01.248Z,0.54
2023-05-08T08:38:51.264Z,0.54
2023-05-08T08:39:41.342Z,0.54
2023-05-08T08:40:31.503Z,0.55
2023-05-08T08:41:22.474Z,0.56
2023-05-08T08:42:11.499Z,0.54
2023-05-08T08:43:01.581Z,0.58
2023-05-08T08:43:51.613Z,0.57
2023-05-08T08:44:41.689Z,0.57
2023-05-08T08:45:31.705Z,0.57
2023-05-08T08:46:21.830Z,0.56
2023-05-08T08:47:11.846Z,0.55
2023-05-08T08:48:01.967Z,0.55
2023-05-08T08:48:51.989Z,0.58
2023-05-08T08:49:42.059Z,0.59
2023-05-08T08:50:32.127Z,0.57
2023-05-08T08:51:22.199Z,0.57
2023-05-08T08:52:12.267Z,0.57
2023-05-08T08:53:02.358Z,0.58
2023-05-08T08:53:52.395Z,0.57
2023-05-08T08:54:42.462Z,0.56
2023-05-08T08:55:32.508Z,0.55
2023-05-08T08:56:22.707Z,0.56
2023-05-08T08:57:12.629Z,0.54
2023-05-08T08:58:02.724Z,0.55
2023-05-08T08:58:52.737Z,0.55
2023-05-08T08:59:42.829Z,0.53
2023-05-08T09:00:32.877Z,0.53
2023-05-08T09:01:22.987Z,0.52
2023-05-08T09:02:13.148Z,0.53
2023-05-08T09:03:03.200Z,0.52
2023-05-08T09:03:53.259Z,0.51
2023-05-08T09:04:43.143Z,0.50
2023-05-08T09:05:33.198Z,0.50
2023-05-08T09:06:23.293Z,0.53
2023-05-08T09:07:13.342Z,0.50
2023-05-08T09:08:03.428Z,0.51
2023-05-08T09:08:53.449Z,0.53
2023-05-08T09:09:43.525Z,0.53
2023-05-08T09:10:33.551Z,0.54
2023-05-08T09:11:23.636Z,0.56
2023-05-08T09:12:13.831Z,0.55
2023-05-08T09:13:03.825Z,0.58
2023-05-08T09:13:53.794Z,0.57
2023-05-08T09:14:43.888Z,0.56
2023-05-08T09:15:33.898Z,0.56
2023-05-08T09:16:24.038Z,0.56
2023-05-08T09:17:14.035Z,0.57
2023-05-08T09:18:04.194Z,0.57
2023-05-08T09:18:54.131Z,0.58
2023-05-08T09:19:44.213Z,0.58
2023-05-08T09:20:34.265Z,0.60
2023-05-08T09:21:24.339Z,0.60
2023-05-08T09:22:14.406Z,0.59
2023-05-08T09:23:04.526Z,0.60
2023-05-08T09:23:54.536Z,0.61
2023-05-08T09:24:44.605Z,0.63
2023-05-08T09:25:34.672Z,0.62
2023-05-08T09:26:24.746Z,0.62
2023-05-08T09:27:14.803Z,0.65
2023-05-08T09:28:05.024Z,0.65
2023-05-08T09:28:54.942Z,0.65
2023-05-08T09:29:45.016Z,0.64
2023-05-08T09:30:35.053Z,0.64
2023-05-08T09:31:25.135Z,0.64
2023-05-08T09:32:15.184Z,0.66
2023-05-08T09:33:05.341Z,0.66
2023-05-08T09:33:55.782Z,0.67
2023-05-08T09:34:45.337Z,0.65
2023-05-08T09:35:35.403Z,0.67
2023-05-08T09:36:25.490Z,0.66
2023-05-08T09:37:15.545Z,0.68
2023-05-08T09:38:05.635Z,0.66
2023-05-08T09:38:55.669Z,0.66
2023-05-08T09:39:45.736Z,0.68
2023-05-08T09:40:35.792Z,0.67
2023-05-08T09:41:25.864Z,0.67
2023-05-08T09:42:15.945Z,0.67
2023-05-08T09:43:06.027Z,0.66
2023-05-08T09:43:56.202Z,0.68
2023-05-08T09:44:46.130Z,0.67
2023-05-08T09:45:36.239Z,0.67
2023-05-08T09:46:26.438Z,0.69
2023-05-08T09:47:16.301Z,0.69
2023-05-08T09:48:12.568Z,0.70
2023-05-08T09:48:56.459Z,0.69
2023-05-08T09:49:46.505Z,0.70
2023-05-08T09:50:36.577Z,0.70
2023-05-08T09:51:26.627Z,0.69
2023-05-08T09:52:16.705Z,0.72
2023-05-08T09:53:06.766Z,0.72
2023-05-08T09:53:56.845Z,0.69
2023-05-08T09:54:46.869Z,0.73
2023-05-08T09:55:36.938Z,0.70
2023-05-08T09:56:27.009Z,0.73
2023-05-08T09:57:17.077Z,0.73
2023-05-08T09:58:07.150Z,0.73
2023-05-08T09:58:57.222Z,0.71
2023-05-08T09:59:47.362Z,0.73
2023-05-08T10:00:37.334Z,0.73
2023-05-08T10:01:27.430Z,0.72
2023-05-08T10:02:17.420Z,0.71
2023-05-08T10:03:07.520Z,0.74
2023-05-08T10:03:57.613Z,0.74
2023-05-08T10:04:47.635Z,0.75
2023-05-08T10:05:37.676Z,0.74
2023-05-08T10:06:27.736Z,0.73
2023-05-08T10:07:17.802Z,0.73
2023-05-08T10:08:07.873Z,0.74
2023-05-08T10:08:57.978Z,0.75
2023-05-08T10:09:50.867Z,0.73
2023-05-08T10:10:38.033Z,0.73
2023-05-08T10:11:28.110Z,0.73
2023-05-08T10:12:18.170Z,0.74
2023-05-08T10:13:08.323Z,0.74
2023-05-08T10:13:58.354Z,0.73
2023-05-08T10:14:48.356Z,0.74
2023-05-08T10:15:38.596Z,0.73
2023-05-08T10:16:28.509Z,0.74
2023-05-08T10:17:18.841Z,0.70
2023-05-08T10:18:08.682Z,0.71
2023-05-08T10:18:58.615Z,0.71
2023-05-08T10:19:48.677Z,0.68
2023-05-08T10:20:38.741Z,0.70
2023-05-08T10:21:28.798Z,0.68
2023-05-08T10:22:18.869Z,0.69
2023-05-08T10:23:08.937Z,0.72
2023-05-08T10:23:59.017Z,0.71
2023-05-08T10:24:49.038Z,0.72
2023-05-08T10:25:39.115Z,0.69
2023-05-08T10:26:29.136Z,0.70
2023-05-08T10:27:19.219Z,0.72
2023-05-08T10:28:09.273Z,0.70
2023-05-08T10:28:59.373Z,0.71
2023-05-08T10:29:49.385Z,0.73
2023-05-08T10:30:39.465Z,0.71
2023-05-08T10:31:29.694Z,0.70
2023-05-08T10:32:19.564Z,0.71
2023-05-08T10:33:09.747Z,0.70
2023-05-08T10:33:59.715Z,0.71
2023-05-08T10:34:49.736Z,0.72
2023-05-08T10:35:39.802Z,0.71
2023-05-08T10:36:31.040Z,0.72
2023-05-08T10:37:20.081Z,0.72
2023-05-08T10:38:10.157Z,0.72
2023-05-08T10:39:00.207Z,0.73
2023-05-08T10:39:50.223Z,0.73
2023-05-08T10:40:40.286Z,0.71
2023-05-08T10:41:30.357Z,0.71
2023-05-08T10:42:20.419Z,0.71
2023-05-08T10:43:10.475Z,0.72
2023-05-08T10:44:02.537Z,0.69
2023-05-08T10:44:50.616Z,0.71
2023-05-08T10:45:40.685Z,0.70
2023-05-08T10:46:30.791Z,0.71
2023-05-08T10:47:20.933Z,0.71
2023-05-08T10:48:10.916Z,0.73
2023-05-08T10:49:00.959Z,0.72
2023-05-08T10:49:50.969Z,0.72
2023-05-08T10:50:41.037Z,0.72
2023-05-08T10:51:31.111Z,0.71
2023-05-08T10:52:21.170Z,0.73
2023-05-08T10:53:11.233Z,0.73
2023-05-08T10:54:01.311Z,0.72
2023-05-08T10:54:51.332Z,0.72
2023-05-08T10:55:41.402Z,0.72
2023-05-08T10:56:31.469Z,0.73
2023-05-08T10:57:21.532Z,0.75
2023-05-08T10:58:11.612Z,0.75
2023-05-08T10:59:01.663Z,0.73
2023-05-08T10:59:51.682Z,0.73
2023-05-08T11:00:41.769Z,0.71
2023-05-08T11:01:33.266Z,0.74
2023-05-08T11:02:21.881Z,0.73
2023-05-08T11:03:23.454Z,0.70
2023-05-08T11:04:03.048Z,0.71
2023-05-08T11:04:52.047Z,0.70
2023-05-08T11:05:42.117Z,0.72
2023-05-08T11:06:32.180Z,0.72